Thursday, November 15, 2018, 8:11 PM EST
Back to Local

KBLM, Belmar-farmingdale

Location: Farmingdale, NJ, United States Lat: 40.183
Local Time: 8:11 PM EST ( 1:11 GMT) Lon: -74.133
Time Zone: US/Eastern Elev: 157 ft

Show me the last for .
Show Decoded

2018-11-15 18:56 METAR KBLM 152356Z AUTO 06017G23KT 3SM RA BR OVC007 05/04 A3009 RMK AO2 PK WND
                 06029/2345 PRESFR SLP195 P0008 60103 T00500039 10050 20017 58052 =
2018-11-15 17:56 METAR KBLM 152256Z AUTO 07014G24KT 3SM -RA BR BKN009 OVC015 04/03 A3014 RMK AO2
                 PK WND 07026/2203 CIG 007V011 SLP212 P0011 T00440033 =
2018-11-15 16:56 METAR KBLM 152156Z AUTO 07015G22KT 3SM -RA BR BKN009 OVC014 04/03 A3020 RMK AO2
                 UPE09RAB09 CIG 006V011 SLP230 P0017 T00390028 =
2018-11-15 16:31 METAR KBLM 152131Z AUTO 07013G20KT 2SM -RA BR BKN009 OVC013 03/03 A3020 RMK AO2
                 UPE09RAB09 CIG 006V010 P0011 =
2018-11-15 16:24 METAR KBLM 152124Z AUTO 06011G22KT 1 3/4SM -RA BR BKN009 OVC013 03/02 A3021 RMK
                 AO2 UPE09RAB09 CIG 006V011 P0009 =
2018-11-15 16:03 METAR KBLM 152103Z AUTO 06015G23KT 2SM UP BR BKN009 OVC013 03/02 A3023 RMK AO2
                 P0002 =
2018-11-15 15:56 METAR KBLM 152056Z AUTO 06012G20KT 1 3/4SM UP BR OVC007 03/02 A3024 RMK AO2 PK
                 WND 08027/2004 UPB1956SNE1956B1958E10 CIG 007V011 SLP247 P0022 60067 T00280022
                 56021 =
2018-11-15 15:52 METAR KBLM 152052Z AUTO 07015G20KT 1 3/4SM UP BR OVC007 03/02 A3025 RMK AO2 PK
                 WND 08027/2004 UPB1956SNE1956B1958E10 P0021 =
2018-11-15 15:21 METAR KBLM 152021Z AUTO 08012G20KT 2 1/2SM UP BR OVC007 03/02 A3025 RMK AO2 PK
                 WND 08027/2004 UPB1956SNE1956B1958E10 CIG 005V010 P0009 =
2018-11-15 14:55 METAR KBLM 151955Z AUTO 07013G23KT 1 3/4SM -SN BR OVC007 02/02 A3024 RMK AO2
                 UPB1858E07SNE1858B07 CIG 005V008 SLP244 P0028 T00220017 FZRANO =
2018-11-15 14:54 METAR KBLM 151954Z AUTO 07014G23KT 1 3/4SM -SN BR OVC007 02/02 A3023 RMK AO2
                 UPB1858E07SNE1858B07 P0028 FZRANO =
2018-11-15 14:42 METAR KBLM 151942Z AUTO 07017G21KT 3SM -SN BR OVC007 02/01 A3023 RMK AO2
                 UPB1858E07SNE1858B07 PRESFR P0021 FZRANO =
2018-11-15 14:34 METAR KBLM 151934Z AUTO 08012KT 2 1/2SM -SN BR OVC007 02/01 A3027 RMK AO2
                 UPB1858E07SNE1858B07 P0017 FZRANO =
2018-11-15 14:08 METAR KBLM 151908Z AUTO 07015G19KT 1 3/4SM -SN BR OVC009 02/01 A3029 RMK AO2
                 UPB1858E07SNE1858B07 PRESFR P0007 FZRANO =
2018-11-15 13:56 METAR KBLM 151856Z AUTO 08017G21KT 4SM -SN BR OVC009 02/02 A3030 RMK AO2
                 RAE11SNB11 PRESFR SLP268 P0017 T00220017 FZRANO =
2018-11-15 13:39 METAR KBLM 151839Z AUTO 08009G17KT 5SM -SN BR OVC009 02/01 A3036 RMK AO2
                 RAE11SNB11 CIG 008V012 PRESFR P0012 FZRANO =
2018-11-15 11:56 METAR KBLM 151656Z AUTO 08007KT 10SM OVC030 03/M01 A3042 RMK AO2 RAE16 SLP306
                 P0000 T00331006 =
2018-11-15 11:51 METAR KBLM 151651Z AUTO 05006KT 10SM OVC030 03/M01 A3042 RMK AO2 RAE16 P0000 =
2018-11-15 10:56 METAR KBLM 151556Z AUTO 03009G17KT 10SM -RA OVC028 02/M02 A3045 RMK AO2
                 RAB10E34B56 SLP316 P0000 T00221022 FZRANO =
2018-11-15 09:56 METAR KBLM 151456Z AUTO 04010KT 10SM BKN026 OVC033 03/M02 A3049 RMK AO2 SLP331
                 T00331017 58015 =
2018-11-15 08:56 METAR KBLM 151356Z AUTO 05012KT 10SM OVC034 03/M03 A3052 RMK AO2 SLP339
                 T00281033 =
2018-11-15 07:56 METAR KBLM 151256Z AUTO 07007KT 10SM OVC032 02/M05 A3054 RMK AO2 SLP348
                 T00221050 FZRANO =
2018-11-15 06:56 METAR KBLM 151156Z AUTO 04007KT 10SM FEW034 01/M06 A3054 RMK AO2 SLP346
                 T00111056 10011 20000 56013 FZRANO =
2018-11-15 05:56 METAR KBLM 151056Z AUTO 03007KT 10SM CLR 00/M08 A3054 RMK AO2 SLP346 T00001078
                 FZRANO =
2018-11-15 04:56 METAR KBLM 150956Z AUTO 01005KT 10SM CLR 00/M08 A3057 RMK AO2 SLP356 T00001083
                 FZRANO =
2018-11-15 03:56 METAR KBLM 150856Z AUTO 03006KT 10SM CLR 00/M09 A3057 RMK AO2 SLP359 T00001089
                 50003 FZRANO =
2018-11-15 02:56 METAR KBLM 150756Z AUTO 36006KT 10SM CLR 01/M09 A3058 RMK AO2 SLP362 T00061089
                 FZRANO =
2018-11-15 01:56 METAR KBLM 150656Z AUTO 35004KT 10SM CLR 00/M07 A3057 RMK AO2 SLP356 T00001067
                 FZRANO =
2018-11-15 00:56 METAR KBLM 150556Z AUTO 34006KT 10SM CLR 00/M08 A3057 RMK AO2 SLP356 T00001078
                 10017 20000 58010 FZRANO =
2018-11-14 23:56 METAR KBLM 150456Z AUTO 32007KT 10SM CLR 00/M09 A3059 RMK AO2 SLP365 T00001094
                 400560000 FZRANO =
2018-11-14 22:56 METAR KBLM 150356Z AUTO 35008KT 10SM CLR 01/M10 A3058 RMK AO2 SLP360 T00061100
                 FZRANO =
2018-11-14 21:56 METAR KBLM 150256Z AUTO 34007KT 10SM CLR 01/M09 A3059 RMK AO2 SLP366 T00061089
                 53025 FZRANO =
2018-11-14 20:56 METAR KBLM 150156Z AUTO 34007KT 10SM CLR 01/M09 A3056 RMK AO2 SLP354 T00111089
                 FZRANO =

Support USWX by starting your Amazon purchase here.